createdAt,value
2023-01-18T00:00:46.429Z,92058.34
2023-01-18T00:03:54.487Z,92054.91
2023-01-18T00:07:02.514Z,92057.19
2023-01-18T00:10:12.088Z,92060.47
2023-01-18T00:13:21.520Z,92050.69
2023-01-18T00:16:31.288Z,92056.22
2023-01-18T00:19:39.406Z,92051.81
2023-01-18T00:22:47.562Z,92054.78
2023-01-18T00:25:59.977Z,92058.56
2023-01-18T00:29:10.310Z,92056.19
2023-01-18T00:32:18.370Z,92050.44
2023-01-18T00:35:27.241Z,92051.91
2023-01-18T00:38:35.311Z,92054.81
2023-01-18T00:42:03.630Z,92056.41
2023-01-18T00:45:12.838Z,92048.31
2023-01-18T00:48:21.001Z,92054.94
2023-01-18T00:51:29.138Z,92051.38
2023-01-18T00:54:37.488Z,92051.63
2023-01-18T00:57:45.563Z,92048.34
2023-01-18T01:00:55.358Z,92050.84
2023-01-18T01:04:21.139Z,92054.91
2023-01-18T01:07:29.316Z,92050.13
2023-01-18T01:10:37.466Z,92056.97
2023-01-18T01:14:03.446Z,92067.81
2023-01-18T01:17:30.640Z,92067.84
2023-01-18T01:20:56.470Z,92073.88
2023-01-18T01:24:22.847Z,92067.47
2023-01-18T01:27:30.971Z,92072.69
2023-01-18T01:30:39.155Z,92072.25
2023-01-18T01:33:49.980Z,92078.31
2023-01-18T01:36:58.441Z,92075.69
2023-01-18T01:40:08.089Z,92085.94
2023-01-18T01:43:16.172Z,92087.72
2023-01-18T01:46:36.083Z,92089.16
2023-01-18T01:49:52.358Z,92097.19
2023-01-18T01:53:00.735Z,92109.66
2023-01-18T01:56:10.540Z,92103.63
2023-01-18T01:59:19.992Z,92103.22
2023-01-18T02:02:31.311Z,92109.84
2023-01-18T02:05:48.437Z,92115.88
2023-01-18T02:08:56.519Z,92115.88
2023-01-18T02:12:06.084Z,92125.69
2023-01-18T02:15:14.428Z,92123.50
2023-01-18T02:18:32.697Z,92126.50
2023-01-18T02:21:47.770Z,92130.31
2023-01-18T02:25:29.881Z,92137.56
2023-01-18T02:28:46.053Z,92136.53
2023-01-18T02:32:14.294Z,92150.63
2023-01-18T02:35:37.221Z,92146.59
2023-01-18T02:38:48.100Z,92161.25
2023-01-18T02:42:21.865Z,92151.81
2023-01-18T02:45:53.468Z,92153.03
2023-01-18T02:49:09.377Z,92151.44
2023-01-18T02:52:41.967Z,92157.06
2023-01-18T02:55:57.427Z,92160.88
2023-01-18T02:59:12.559Z,92162.66
2023-01-18T03:02:24.800Z,92169.13
2023-01-18T03:05:36.429Z,92166.50
2023-01-18T03:08:48.854Z,92159.28
2023-01-18T03:12:07.200Z,92163.47
2023-01-18T03:15:25.530Z,92162.47
2023-01-18T03:19:00.247Z,92164.28
2023-01-18T03:22:08.488Z,92164.72
2023-01-18T03:25:22.123Z,92168.31
2023-01-18T03:28:52.954Z,92159.28
2023-01-18T03:32:26.948Z,92162.50
2023-01-18T03:35:39.284Z,92159.06
2023-01-18T03:38:54.759Z,92158.25
2023-01-18T03:42:10.170Z,92155.00
2023-01-18T03:45:27.802Z,92150.22
2023-01-18T03:48:37.892Z,92156.81
2023-01-18T03:52:02.818Z,92158.84
2023-01-18T03:55:17.816Z,92166.69
2023-01-18T03:58:36.087Z,92156.63
2023-01-18T04:01:46.704Z,92156.63
2023-01-18T04:04:57.578Z,92157.41
2023-01-18T04:08:07.800Z,92152.59
2023-01-18T04:11:16.150Z,92157.59
2023-01-18T04:14:26.247Z,92152.31
2023-01-18T04:17:34.472Z,92144.81
2023-01-18T04:20:42.697Z,92145.50
2023-01-18T04:23:52.238Z,92144.91
2023-01-18T04:27:00.933Z,92136.09
2023-01-18T04:30:11.099Z,92123.28
2023-01-18T04:33:20.705Z,92131.34
2023-01-18T04:36:29.451Z,92118.06
2023-01-18T04:39:39.164Z,92131.31
2023-01-18T04:42:54.190Z,92136.53
2023-01-18T04:46:02.422Z,92140.16
2023-01-18T04:49:15.562Z,92145.59
2023-01-18T04:52:24.094Z,92142.53
2023-01-18T04:55:33.716Z,92143.97
2023-01-18T04:58:42.082Z,92150.22
2023-01-18T05:01:50.258Z,92158.50
2023-01-18T05:05:00.055Z,92158.94
2023-01-18T05:08:08.220Z,92157.53
2023-01-18T05:11:20.799Z,92161.59
2023-01-18T05:14:29.026Z,92165.22
2023-01-18T05:17:37.254Z,92171.88
2023-01-18T05:20:45.442Z,92181.56
2023-01-18T05:23:54.734Z,92187.19
2023-01-18T05:27:04.439Z,92193.41
2023-01-18T05:30:13.963Z,92189.81
2023-01-18T05:33:23.749Z,92193.03
2023-01-18T05:36:32.011Z,92207.72
2023-01-18T05:39:40.147Z,92211.31
2023-01-18T05:42:49.723Z,92220.13
2023-01-18T05:45:58.864Z,92217.53
2023-01-18T05:49:07.137Z,92207.28
2023-01-18T05:52:15.359Z,92222.56
2023-01-18T05:55:23.702Z,92213.28
2023-01-18T05:58:33.636Z,92226.78
2023-01-18T06:01:42.089Z,92235.03
2023-01-18T06:04:50.208Z,92233.84
2023-01-18T06:07:58.438Z,92245.50
2023-01-18T06:11:07.831Z,92246.09
2023-01-18T06:14:17.466Z,92247.09
2023-01-18T06:17:25.771Z,92254.56
2023-01-18T06:20:34.067Z,92258.34
2023-01-18T06:23:42.239Z,92253.53
2023-01-18T06:26:50.417Z,92262.16
2023-01-18T06:29:59.895Z,92253.94
2023-01-18T06:33:08.533Z,92263.56
2023-01-18T06:40:01.309Z,92274.06
2023-01-18T06:43:14.056Z,92277.88
2023-01-18T06:46:24.078Z,92282.91
2023-01-18T06:49:32.216Z,92280.06
2023-01-18T06:52:41.496Z,92294.56
2023-01-18T06:55:57.879Z,92297.97
2023-01-18T06:59:08.411Z,92300.19
2023-01-18T07:02:18.170Z,92297.19
2023-01-18T07:05:26.329Z,92315.50
2023-01-18T07:08:35.548Z,92315.28
2023-01-18T07:11:43.822Z,92319.72
2023-01-18T07:14:52.347Z,92318.28
2023-01-18T07:18:01.794Z,92315.09
2023-01-18T07:21:12.779Z,92336.00
2023-01-18T07:24:23.199Z,92335.75
2023-01-18T07:27:31.902Z,92342.81
2023-01-18T07:30:40.232Z,92338.19
2023-01-18T07:33:49.819Z,92346.22
2023-01-18T07:36:57.927Z,92356.25
2023-01-18T07:40:08.317Z,92362.91
2023-01-18T07:43:18.232Z,92366.88
2023-01-18T07:46:26.890Z,92376.34
2023-01-18T07:49:36.398Z,92378.31
2023-01-18T07:52:45.151Z,92383.97
2023-01-18T07:55:54.129Z,92382.31
2023-01-18T07:59:02.637Z,92375.66
2023-01-18T08:02:14.501Z,92388.09
2023-01-18T08:05:26.844Z,92389.19
2023-01-18T08:08:36.054Z,92393.78
2023-01-18T08:11:44.292Z,92399.91
2023-01-18T08:14:52.503Z,92404.00
2023-01-18T08:18:03.556Z,92400.84
2023-01-18T08:21:14.355Z,92409.25
2023-01-18T08:24:22.429Z,92402.63
2023-01-18T08:27:30.563Z,92413.69
2023-01-18T08:30:41.120Z,92409.81
2023-01-18T08:33:50.937Z,92428.56
2023-01-18T08:37:00.352Z,92427.72
2023-01-18T08:40:10.515Z,92434.91
2023-01-18T08:43:18.611Z,92439.50
2023-01-18T08:46:27.430Z,92449.19
2023-01-18T08:49:35.738Z,92458.47
2023-01-18T08:52:45.164Z,92465.00
2023-01-18T08:55:53.271Z,92469.59
2023-01-18T08:59:02.627Z,92471.53
2023-01-18T09:02:11.054Z,92474.97
2023-01-18T09:05:19.187Z,92479.81
2023-01-18T09:08:28.781Z,92489.00
2023-01-18T09:11:38.387Z,92493.50
2023-01-18T09:14:46.695Z,92501.34
2023-01-18T09:17:54.877Z,92505.72
2023-01-18T09:21:08.419Z,92507.66
2023-01-18T09:24:18.251Z,92512.22
2023-01-18T09:27:26.481Z,92527.44
2023-01-18T09:30:35.859Z,92535.56
2023-01-18T09:33:52.443Z,92545.84
2023-01-18T09:37:01.333Z,92546.84
2023-01-18T09:40:18.509Z,92550.75
2023-01-18T09:43:39.034Z,92550.75
2023-01-18T09:46:54.648Z,92548.16
2023-01-18T09:50:14.765Z,92553.84
2023-01-18T09:53:50.787Z,92556.16
2023-01-18T09:57:09.785Z,92559.25
2023-01-18T10:00:25.368Z,92562.28
2023-01-18T10:03:45.949Z,92565.50
2023-01-18T10:06:59.169Z,92574.63
2023-01-18T10:10:15.969Z,92582.44
2023-01-18T10:13:47.474Z,92582.00
2023-01-18T10:17:01.796Z,92593.28
2023-01-18T10:20:21.316Z,92587.78
2023-01-18T10:23:39.426Z,92593.94
2023-01-18T10:26:54.330Z,92592.41
2023-01-18T10:30:28.937Z,92595.13
2023-01-18T10:33:42.151Z,92593.44
2023-01-18T10:36:55.450Z,92599.06
2023-01-18T10:40:07.659Z,92609.81
2023-01-18T10:43:20.512Z,92598.25
2023-01-18T10:46:30.338Z,92621.00
2023-01-18T10:49:42.469Z,92614.31
2023-01-18T10:52:53.664Z,92622.00
2023-01-18T10:56:07.645Z,92624.84
2023-01-18T10:59:29.849Z,92639.16
2023-01-18T11:02:43.927Z,92637.84
2023-01-18T11:05:53.441Z,92647.56
2023-01-18T11:09:01.995Z,92643.94
2023-01-18T11:12:38.209Z,92648.13
2023-01-18T11:15:46.432Z,92652.22
2023-01-18T11:19:02.818Z,92670.94
2023-01-18T11:22:13.694Z,92664.25
2023-01-18T11:25:23.217Z,92662.69
2023-01-18T11:28:40.465Z,92660.69
2023-01-18T11:31:51.173Z,92665.94
2023-01-18T11:35:01.677Z,92671.31
2023-01-18T11:38:19.562Z,92672.91
2023-01-18T11:41:27.781Z,92682.31
2023-01-18T11:44:43.141Z,92681.25
2023-01-18T11:48:02.364Z,92691.13
2023-01-18T11:51:26.817Z,92687.31
2023-01-18T11:54:42.875Z,92692.34
2023-01-18T11:57:53.121Z,92698.16
2023-01-18T12:01:30.572Z,92699.41
2023-01-18T12:05:02.858Z,92709.16
2023-01-18T12:08:53.125Z,92715.59
2023-01-18T12:12:28.595Z,92717.44
2023-01-18T12:16:03.418Z,92727.00
2023-01-18T12:19:54.621Z,92737.00
2023-01-18T12:23:49.175Z,92751.00
2023-01-18T12:27:02.930Z,92758.31
2023-01-18T12:30:40.114Z,92758.34
2023-01-18T12:34:01.292Z,92756.38
2023-01-18T12:37:35.254Z,92757.97
2023-01-18T12:41:16.316Z,92754.34
2023-01-18T12:44:54.758Z,92759.78
2023-01-18T12:48:16.644Z,92767.00
2023-01-18T12:51:30.235Z,92780.09
2023-01-18T12:54:45.831Z,92784.59
2023-01-18T12:58:00.268Z,92783.16
2023-01-18T13:01:16.516Z,92786.81
2023-01-18T13:04:32.652Z,92790.81
2023-01-18T13:07:46.885Z,92806.78
2023-01-18T13:11:07.585Z,92808.03
2023-01-18T13:14:26.351Z,92804.00
2023-01-18T13:17:47.115Z,92809.03
2023-01-18T13:21:12.441Z,92817.91
2023-01-18T13:24:37.403Z,92810.06
2023-01-18T13:27:59.702Z,92800.34
2023-01-18T13:31:09.639Z,92810.03
2023-01-18T13:34:47.604Z,92815.69
2023-01-18T13:37:59.948Z,92837.44
2023-01-18T13:41:12.724Z,92836.88
2023-01-18T13:44:32.436Z,92852.22
2023-01-18T13:47:53.893Z,92866.72
2023-01-18T13:51:02.089Z,92871.50
2023-01-18T13:54:12.637Z,92878.41
2023-01-18T13:57:27.930Z,92892.28
2023-01-18T14:00:36.952Z,92897.69
2023-01-18T14:03:51.062Z,92911.81
2023-01-18T14:07:03.934Z,92916.97
2023-01-18T14:10:30.435Z,92926.16
2023-01-18T14:14:03.253Z,92943.84
2023-01-18T14:17:17.379Z,92944.72
2023-01-18T14:20:57.890Z,92958.44
2023-01-18T14:24:43.158Z,92967.53
2023-01-18T14:28:05.026Z,92974.34
2023-01-18T14:31:25.406Z,92983.56
2023-01-18T14:34:43.100Z,92989.97
2023-01-18T14:37:53.030Z,92993.84
2023-01-18T14:41:07.459Z,92998.03
2023-01-18T14:44:20.398Z,92999.72
2023-01-18T14:47:33.828Z,93004.19
2023-01-18T14:50:47.029Z,93014.66
2023-01-18T14:54:00.677Z,93014.66
2023-01-18T14:57:15.550Z,93013.50
2023-01-18T15:00:25.260Z,93025.19
2023-01-18T15:03:33.615Z,93023.53
2023-01-18T15:06:46.912Z,93033.09
2023-01-18T15:09:58.933Z,93033.78
2023-01-18T15:13:08.336Z,93039.34
2023-01-18T15:16:21.658Z,93034.69
2023-01-18T15:19:43.408Z,93043.28
2023-01-18T15:22:54.636Z,93051.22
2023-01-18T15:26:06.229Z,93052.44
2023-01-18T15:29:17.718Z,93051.63
2023-01-18T15:32:30.012Z,93061.13
2023-01-18T15:35:38.478Z,93059.66
2023-01-18T15:38:46.924Z,93062.78
2023-01-18T15:42:02.437Z,93078.63
2023-01-18T15:45:20.546Z,93082.25
2023-01-18T15:48:40.025Z,93088.34
2023-01-18T15:51:56.417Z,93098.47
2023-01-18T15:55:08.617Z,93104.69
2023-01-18T15:58:30.181Z,93114.53
2023-01-18T16:01:38.497Z,93120.53
2023-01-18T16:04:47.577Z,93124.50
2023-01-18T16:08:20.206Z,93128.84
2023-01-18T16:11:33.279Z,93139.41
2023-01-18T16:14:46.260Z,93136.91
2023-01-18T16:18:03.074Z,93154.78
2023-01-18T16:21:20.001Z,93162.47
2023-01-18T16:24:35.125Z,93166.72
2023-01-18T16:27:51.326Z,93177.69
2023-01-18T16:31:03.412Z,93186.75
2023-01-18T16:34:25.647Z,93186.09
2023-01-18T16:37:34.247Z,93192.25
2023-01-18T16:40:46.267Z,93202.63
2023-01-18T16:43:54.864Z,93212.53
2023-01-18T16:47:04.409Z,93211.63
2023-01-18T16:50:16.014Z,93221.28
2023-01-18T16:53:24.450Z,93222.28
2023-01-18T16:56:32.555Z,93226.91
2023-01-18T16:59:40.651Z,93242.06
2023-01-18T17:02:50.726Z,93246.81
2023-01-18T17:05:59.073Z,93256.72
2023-01-18T17:09:21.091Z,93258.47
2023-01-18T17:12:29.281Z,93266.94
2023-01-18T17:15:41.599Z,93269.03
2023-01-18T17:18:51.170Z,93283.53
2023-01-18T17:21:59.427Z,93293.19
2023-01-18T17:25:08.884Z,93290.84
2023-01-18T17:28:19.688Z,93305.75
2023-01-18T17:31:28.371Z,93304.38
2023-01-18T17:34:37.941Z,93309.44
2023-01-18T17:37:46.197Z,93314.03
2023-01-18T17:40:54.391Z,93316.94
2023-01-18T17:44:03.967Z,93320.91
2023-01-18T17:47:12.181Z,93321.13
2023-01-18T17:50:24.878Z,93329.00
2023-01-18T17:53:33.326Z,93338.63
2023-01-18T17:56:41.573Z,93340.09
2023-01-18T17:59:55.490Z,93343.81
2023-01-18T18:03:04.241Z,93345.59
2023-01-18T18:06:26.127Z,93355.56
2023-01-18T18:09:40.694Z,93362.63
2023-01-18T18:12:49.275Z,93362.63
2023-01-18T18:15:58.053Z,93363.56
2023-01-18T18:19:06.337Z,93365.88
2023-01-18T18:22:16.158Z,93368.94
2023-01-18T18:25:24.262Z,93371.94
2023-01-18T18:28:34.660Z,93362.91
2023-01-18T18:31:43.967Z,93370.78
2023-01-18T18:34:52.813Z,93373.72
2023-01-18T18:38:02.282Z,93377.50
2023-01-18T18:41:10.613Z,93392.44
2023-01-18T18:44:18.726Z,93401.56
2023-01-18T18:47:27.000Z,93407.31
2023-01-18T18:50:36.270Z,93403.25
2023-01-18T18:53:45.807Z,93409.44
2023-01-18T18:56:54.252Z,93412.06
2023-01-18T19:00:02.674Z,93417.00
2023-01-18T19:03:11.172Z,93415.38
2023-01-18T19:06:22.802Z,93416.69
2023-01-18T19:09:33.191Z,93421.69
2023-01-18T19:12:41.452Z,93422.38
2023-01-18T19:15:51.233Z,93433.44
2023-01-18T19:18:59.423Z,93443.88
2023-01-18T19:22:07.628Z,93448.78
2023-01-18T19:25:18.031Z,93454.94
2023-01-18T19:28:26.412Z,93457.22
2023-01-18T19:31:34.543Z,93464.50
2023-01-18T19:34:42.728Z,93470.00
2023-01-18T19:37:51.405Z,93459.38
2023-01-18T19:41:03.035Z,93455.78
2023-01-18T19:44:12.776Z,93460.34
2023-01-18T19:47:20.897Z,93461.66
2023-01-18T19:50:31.299Z,93465.91
2023-01-18T19:53:40.296Z,93472.75
2023-01-18T19:56:51.309Z,93486.66
2023-01-18T20:00:03.957Z,93502.44
2023-01-18T20:03:20.583Z,93515.19
2023-01-18T20:06:28.984Z,93521.03
2023-01-18T20:09:43.244Z,93526.13
2023-01-18T20:12:53.657Z,93535.63
2023-01-18T20:16:02.063Z,93537.06
2023-01-18T20:19:14.063Z,93545.84
2023-01-18T20:22:23.731Z,93549.59
2023-01-18T20:25:33.473Z,93551.25
2023-01-18T20:28:44.299Z,93546.84
2023-01-18T20:31:55.173Z,93562.84
2023-01-18T20:35:06.596Z,93566.78
2023-01-18T20:38:14.846Z,93568.88
2023-01-18T20:41:23.315Z,93564.81
2023-01-18T20:44:33.043Z,93575.44
2023-01-18T20:47:42.609Z,93579.69
2023-01-18T20:50:51.319Z,93591.59
2023-01-18T20:53:59.932Z,93601.72
2023-01-18T20:57:09.466Z,93603.38
2023-01-18T21:00:21.109Z,93611.53
2023-01-18T21:03:29.624Z,93611.19
2023-01-18T21:06:37.995Z,93617.06
2023-01-18T21:09:47.407Z,93618.38
2023-01-18T21:12:55.917Z,93616.06
2023-01-18T21:16:06.942Z,93621.50
2023-01-18T21:19:15.961Z,93615.91
2023-01-18T21:22:24.856Z,93621.97
2023-01-18T21:25:33.445Z,93619.84
2023-01-18T21:28:42.307Z,93614.28
2023-01-18T21:31:52.002Z,93625.91
2023-01-18T21:35:00.427Z,93631.63
2023-01-18T21:38:08.677Z,93622.34
2023-01-18T21:41:34.883Z,93627.56
2023-01-18T21:45:01.006Z,93624.63
2023-01-18T21:48:14.299Z,93630.53
2023-01-18T21:51:40.048Z,93627.91
2023-01-18T21:54:48.596Z,93631.84
2023-01-18T21:58:14.486Z,93631.22
2023-01-18T22:01:25.856Z,93641.00
2023-01-18T22:04:53.433Z,93641.31
2023-01-18T22:08:01.867Z,93648.16
2023-01-18T22:11:10.263Z,93650.63
2023-01-18T22:14:18.776Z,93657.97
2023-01-18T22:17:27.110Z,93656.38
2023-01-18T22:20:37.632Z,93669.09
2023-01-18T22:23:46.380Z,93674.66
2023-01-18T22:26:54.655Z,93670.06
2023-01-18T22:30:02.860Z,93673.34
2023-01-18T22:33:10.937Z,93683.94
2023-01-18T22:36:20.746Z,93678.06
2023-01-18T22:39:28.796Z,93678.06
2023-01-18T22:42:38.079Z,93676.25
2023-01-18T22:45:55.958Z,93676.25
2023-01-18T22:49:04.185Z,93686.72
2023-01-18T22:52:13.759Z,93689.50
2023-01-18T22:55:21.866Z,93693.91
2023-01-18T22:58:30.837Z,93702.91
2023-01-18T23:01:39.043Z,93694.25
2023-01-18T23:04:48.341Z,93690.34
2023-01-18T23:07:58.275Z,93698.19
2023-01-18T23:11:06.714Z,93694.41
2023-01-18T23:14:32.905Z,93699.97
2023-01-18T23:17:42.247Z,93706.63
2023-01-18T23:20:57.657Z,93713.03
2023-01-18T23:24:07.802Z,93706.34
2023-01-18T23:27:17.151Z,93718.41
2023-01-18T23:30:25.636Z,93716.78
2023-01-18T23:33:33.942Z,93719.09
2023-01-18T23:36:42.169Z,93721.34
2023-01-18T23:40:09.281Z,93726.25
2023-01-18T23:43:35.053Z,93735.06
2023-01-18T23:47:00.920Z,93734.91
2023-01-18T23:50:28.411Z,93740.00
2023-01-18T23:53:56.164Z,93746.50
2023-01-18T23:57:06.336Z,93748.81
